SBMQ

Details ICAO SBMQ (MCP)
Name MACAPA
Region Brazil
Timezone America/Belem (UTC-3.0)
Plans Departing 60
Arriving 54
Stats Elevation 56 ft / 17 m (AMSL)
Location 0.050639° -51.072162°
Runways 1
Magnetic Variation 19.352° W
Sunrise 2017-12-14 09:16:54 UTC / 2017-12-14 06:16:54 Local
Sunset 2017-12-14 21:23:58 UTC / 2017-12-14 18:23:58 Local
Advertisement - Login to hide

Runways

ID Width Length Bearing (true) Bearing (mag) Surface Threshold Offset Overrun Length
08 148 ft / 45 m 6,917 ft / 2,108 m 57.22° 76.57° Asphalt 0 ft / 0 m 219 ft / 67 m
26 148 ft / 45 m 6,917 ft / 2,108 m 237.22° 256.57° Asphalt 0 ft / 0 m 219 ft / 67 m

Map

Weather


0- 5 10 15 20 25 30 35+ Temperature / ° C

Clouds and Precipitation
Forecast for 2017-12-15 00:00 UTC. Updated 2 hours ago

Ground ~20,000 ft ~40,000 ft Winds

METAR

SBMQ 142300Z 08003KT 9999 SCT020 BKN070 27/25 Q1012

TAF

TAF SBMQ 141600Z 1418/1518 08015KT 9999 SCT020 FEW025TCU TN24/1508Z TX36/1515Z BECMG 1419/1421 03010KT CAVOK BECMG 1500/1502 36005KT BECMG 1511/1513 07010KT 9999 SCT025 BECMG 1515/1517 07015KT RMK PCQ

Frequencies

Tower 118.00 MHz TWR
Approach 119.00 MHz APP
Warning: Do not use this data for real-world aviation or navigation. No guarantee of current accuracy is given.